sensor_id;sensor_type;location;lat;lon;timestamp;P1;durP1;ratioP1;P2;durP2;ratioP2
27985;SDS011;15453;53.692;10.168;2022-12-18T00:01:24;24.83;;;14.18;;
27985;SDS011;15453;53.692;10.168;2022-12-18T00:03:58;25.45;;;13.50;;
27985;SDS011;15453;53.692;10.168;2022-12-18T00:06:25;25.85;;;14.07;;
27985;SDS011;15453;53.692;10.168;2022-12-18T00:08:51;24.48;;;12.85;;
27985;SDS011;15453;53.692;10.168;2022-12-18T00:11:18;23.13;;;12.18;;
27985;SDS011;15453;53.692;10.168;2022-12-18T00:13:45;21.00;;;11.70;;
27985;SDS011;15453;53.692;10.168;2022-12-18T00:16:14;23.05;;;13.52;;
27985;SDS011;15453;53.692;10.168;2022-12-18T00:18:43;22.13;;;12.35;;
27985;SDS011;15453;53.692;10.168;2022-12-18T00:21:09;24.88;;;13.57;;
27985;SDS011;15453;53.692;10.168;2022-12-18T00:23:37;23.73;;;13.18;;
27985;SDS011;15453;53.692;10.168;2022-12-18T00:26:06;25.83;;;13.25;;
27985;SDS011;15453;53.692;10.168;2022-12-18T00:28:34;25.13;;;13.88;;
27985;SDS011;15453;53.692;10.168;2022-12-18T00:31:03;28.00;;;15.30;;
27985;SDS011;15453;53.692;10.168;2022-12-18T00:33:31;31.00;;;16.42;;
27985;SDS011;15453;53.692;10.168;2022-12-18T00:36:03;28.27;;;15.68;;
27985;SDS011;15453;53.692;10.168;2022-12-18T00:38:29;34.15;;;16.52;;
27985;SDS011;15453;53.692;10.168;2022-12-18T00:40:54;29.45;;;17.23;;
27985;SDS011;15453;53.692;10.168;2022-12-18T00:43:19;34.80;;;17.83;;
27985;SDS011;15453;53.692;10.168;2022-12-18T00:45:45;29.02;;;15.75;;
27985;SDS011;15453;53.692;10.168;2022-12-18T00:48:10;28.83;;;15.70;;
27985;SDS011;15453;53.692;10.168;2022-12-18T00:50:35;27.67;;;14.57;;
27985;SDS011;15453;53.692;10.168;2022-12-18T00:53:00;26.15;;;14.02;;
27985;SDS011;15453;53.692;10.168;2022-12-18T00:55:26;25.35;;;13.95;;
27985;SDS011;15453;53.692;10.168;2022-12-18T00:57:51;25.27;;;13.75;;
27985;SDS011;15453;53.692;10.168;2022-12-18T01:00:17;24.15;;;12.63;;
27985;SDS011;15453;53.692;10.168;2022-12-18T01:02:43;25.83;;;13.77;;
27985;SDS011;15453;53.692;10.168;2022-12-18T01:05:09;21.65;;;11.93;;
27985;SDS011;15453;53.692;10.168;2022-12-18T01:07:36;20.25;;;11.35;;
27985;SDS011;15453;53.692;10.168;2022-12-18T01:10:02;20.75;;;11.10;;
27985;SDS011;15453;53.692;10.168;2022-12-18T01:12:28;23.80;;;10.95;;
27985;SDS011;15453;53.692;10.168;2022-12-18T01:14:53;22.75;;;12.57;;
27985;SDS011;15453;53.692;10.168;2022-12-18T01:17:18;22.45;;;12.68;;
27985;SDS011;15453;53.692;10.168;2022-12-18T01:19:43;19.48;;;11.07;;
27985;SDS011;15453;53.692;10.168;2022-12-18T01:22:09;22.13;;;11.18;;
27985;SDS011;15453;53.692;10.168;2022-12-18T01:24:34;19.45;;;10.63;;
27985;SDS011;15453;53.692;10.168;2022-12-18T01:26:59;20.67;;;10.32;;
27985;SDS011;15453;53.692;10.168;2022-12-18T01:29:24;21.08;;;10.95;;
27985;SDS011;15453;53.692;10.168;2022-12-18T01:31:50;23.95;;;10.93;;
27985;SDS011;15453;53.692;10.168;2022-12-18T01:34:15;22.52;;;11.20;;
27985;SDS011;15453;53.692;10.168;2022-12-18T01:36:40;22.10;;;11.75;;
27985;SDS011;15453;53.692;10.168;2022-12-18T01:39:07;23.85;;;11.60;;
27985;SDS011;15453;53.692;10.168;2022-12-18T01:41:35;16.42;;;8.88;;
27985;SDS011;15453;53.692;10.168;2022-12-18T01:49:50;24.55;;;11.35;;
27985;SDS011;15453;53.692;10.168;2022-12-18T01:52:16;21.33;;;10.70;;
27985;SDS011;15453;53.692;10.168;2022-12-18T01:54:43;21.50;;;11.23;;
27985;SDS011;15453;53.692;10.168;2022-12-18T01:57:09;19.17;;;10.75;;
27985;SDS011;15453;53.692;10.168;2022-12-18T01:59:34;22.20;;;11.88;;
27985;SDS011;15453;53.692;10.168;2022-12-18T02:02:01;21.52;;;11.63;;
27985;SDS011;15453;53.692;10.168;2022-12-18T02:04:27;16.77;;;9.60;;
27985;SDS011;15453;53.692;10.168;2022-12-18T02:06:55;17.02;;;9.80;;
27985;SDS011;15453;53.692;10.168;2022-12-18T02:09:32;21.30;;;10.77;;
27985;SDS011;15453;53.692;10.168;2022-12-18T02:14:55;23.45;;;10.77;;
27985;SDS011;15453;53.692;10.168;2022-12-18T02:20:05;22.20;;;11.23;;
27985;SDS011;15453;53.692;10.168;2022-12-18T02:26:03;19.10;;;10.70;;
27985;SDS011;15453;53.692;10.168;2022-12-18T02:28:38;21.35;;;11.68;;
27985;SDS011;15453;53.692;10.168;2022-12-18T02:31:07;19.55;;;10.55;;
27985;SDS011;15453;53.692;10.168;2022-12-18T02:33:36;22.33;;;10.50;;
27985;SDS011;15453;53.692;10.168;2022-12-18T02:36:02;19.88;;;10.38;;
27985;SDS011;15453;53.692;10.168;2022-12-18T02:38:28;17.75;;;10.15;;
27985;SDS011;15453;53.692;10.168;2022-12-18T02:40:55;17.90;;;10.15;;
27985;SDS011;15453;53.692;10.168;2022-12-18T02:43:21;20.92;;;10.93;;
27985;SDS011;15453;53.692;10.168;2022-12-18T02:45:47;22.00;;;11.60;;
27985;SDS011;15453;53.692;10.168;2022-12-18T02:48:15;20.50;;;10.90;;
27985;SDS011;15453;53.692;10.168;2022-12-18T02:50:50;20.83;;;11.55;;
27985;SDS011;15453;53.692;10.168;2022-12-18T02:53:27;20.10;;;10.43;;
27985;SDS011;15453;53.692;10.168;2022-12-18T02:58:46;17.95;;;9.98;;
27985;SDS011;15453;53.692;10.168;2022-12-18T03:01:19;17.23;;;9.27;;
27985;SDS011;15453;53.692;10.168;2022-12-18T03:03:55;14.88;;;8.45;;
27985;SDS011;15453;53.692;10.168;2022-12-18T03:06:30;16.20;;;8.77;;
27985;SDS011;15453;53.692;10.168;2022-12-18T03:09:00;18.20;;;9.85;;
27985;SDS011;15453;53.692;10.168;2022-12-18T03:11:29;20.42;;;10.18;;
27985;SDS011;15453;53.692;10.168;2022-12-18T03:14:16;19.55;;;9.65;;
27985;SDS011;15453;53.692;10.168;2022-12-18T03:16:44;17.88;;;9.68;;
27985;SDS011;15453;53.692;10.168;2022-12-18T03:19:16;18.10;;;9.32;;
27985;SDS011;15453;53.692;10.168;2022-12-18T03:21:49;18.75;;;10.50;;
27985;SDS011;15453;53.692;10.168;2022-12-18T03:24:16;18.55;;;10.20;;
27985;SDS011;15453;53.692;10.168;2022-12-18T03:26:44;13.90;;;8.05;;
27985;SDS011;15453;53.692;10.168;2022-12-18T03:29:16;16.80;;;8.60;;
27985;SDS011;15453;53.692;10.168;2022-12-18T03:34:13;16.65;;;9.00;;
27985;SDS011;15453;53.692;10.168;2022-12-18T03:36:42;16.52;;;9.23;;
27985;SDS011;15453;53.692;10.168;2022-12-18T03:39:08;19.25;;;9.75;;
27985;SDS011;15453;53.692;10.168;2022-12-18T03:41:43;19.48;;;9.43;;
27985;SDS011;15453;53.692;10.168;2022-12-18T03:47:08;15.38;;;8.75;;
27985;SDS011;15453;53.692;10.168;2022-12-18T03:49:50;22.48;;;10.20;;
27985;SDS011;15453;53.692;10.168;2022-12-18T03:52:26;20.75;;;9.63;;
27985;SDS011;15453;53.692;10.168;2022-12-18T03:54:55;17.63;;;9.63;;
27985;SDS011;15453;53.692;10.168;2022-12-18T03:57:23;19.17;;;9.48;;
27985;SDS011;15453;53.692;10.168;2022-12-18T03:59:52;19.52;;;9.63;;
27985;SDS011;15453;53.692;10.168;2022-12-18T04:02:21;17.38;;;9.10;;
27985;SDS011;15453;53.692;10.168;2022-12-18T04:04:48;17.15;;;8.80;;
27985;SDS011;15453;53.692;10.168;2022-12-18T04:07:17;17.77;;;9.03;;
27985;SDS011;15453;53.692;10.168;2022-12-18T04:09:43;17.85;;;10.02;;
27985;SDS011;15453;53.692;10.168;2022-12-18T04:12:10;18.42;;;9.52;;
27985;SDS011;15453;53.692;10.168;2022-12-18T04:14:36;22.13;;;9.75;;
27985;SDS011;15453;53.692;10.168;2022-12-18T04:17:01;16.50;;;9.02;;
27985;SDS011;15453;53.692;10.168;2022-12-18T04:19:28;17.08;;;9.00;;
27985;SDS011;15453;53.692;10.168;2022-12-18T04:21:53;20.27;;;9.25;;
27985;SDS011;15453;53.692;10.168;2022-12-18T04:24:18;16.95;;;9.32;;
27985;SDS011;15453;53.692;10.168;2022-12-18T04:26:44;15.23;;;8.55;;
27985;SDS011;15453;53.692;10.168;2022-12-18T04:29:09;18.35;;;8.65;;
27985;SDS011;15453;53.692;10.168;2022-12-18T04:31:34;16.15;;;8.60;;
27985;SDS011;15453;53.692;10.168;2022-12-18T04:34:00;15.73;;;8.68;;
27985;SDS011;15453;53.692;10.168;2022-12-18T04:36:25;17.75;;;9.18;;
27985;SDS011;15453;53.692;10.168;2022-12-18T04:38:50;17.63;;;9.70;;
27985;SDS011;15453;53.692;10.168;2022-12-18T04:41:15;18.92;;;8.65;;
27985;SDS011;15453;53.692;10.168;2022-12-18T04:43:41;17.60;;;9.40;;
27985;SDS011;15453;53.692;10.168;2022-12-18T04:46:06;14.35;;;8.02;;
27985;SDS011;15453;53.692;10.168;2022-12-18T04:48:32;12.95;;;8.02;;
27985;SDS011;15453;53.692;10.168;2022-12-18T04:50:58;17.35;;;8.85;;
27985;SDS011;15453;53.692;10.168;2022-12-18T04:53:24;16.92;;;9.40;;
27985;SDS011;15453;53.692;10.168;2022-12-18T04:55:49;17.67;;;8.70;;
27985;SDS011;15453;53.692;10.168;2022-12-18T04:58:15;20.52;;;9.82;;
27985;SDS011;15453;53.692;10.168;2022-12-18T05:00:40;19.63;;;9.77;;
27985;SDS011;15453;53.692;10.168;2022-12-18T05:03:05;19.05;;;10.00;;
27985;SDS011;15453;53.692;10.168;2022-12-18T05:05:31;15.95;;;8.80;;
27985;SDS011;15453;53.692;10.168;2022-12-18T05:07:56;20.05;;;10.18;;
27985;SDS011;15453;53.692;10.168;2022-12-18T05:10:21;22.52;;;10.32;;
27985;SDS011;15453;53.692;10.168;2022-12-18T05:12:47;19.90;;;10.32;;
27985;SDS011;15453;53.692;10.168;2022-12-18T05:15:26;18.67;;;10.40;;
27985;SDS011;15453;53.692;10.168;2022-12-18T05:17:52;20.85;;;10.05;;
27985;SDS011;15453;53.692;10.168;2022-12-18T05:20:18;20.05;;;9.80;;
27985;SDS011;15453;53.692;10.168;2022-12-18T05:22:43;18.50;;;10.32;;
27985;SDS011;15453;53.692;10.168;2022-12-18T05:25:08;17.58;;;9.93;;
27985;SDS011;15453;53.692;10.168;2022-12-18T05:27:34;17.02;;;9.73;;
27985;SDS011;15453;53.692;10.168;2022-12-18T05:29:59;15.75;;;9.18;;
27985;SDS011;15453;53.692;10.168;2022-12-18T05:32:24;15.60;;;8.68;;
27985;SDS011;15453;53.692;10.168;2022-12-18T05:34:49;16.08;;;8.85;;
27985;SDS011;15453;53.692;10.168;2022-12-18T05:37:15;17.92;;;9.45;;
27985;SDS011;15453;53.692;10.168;2022-12-18T05:39:40;17.23;;;8.82;;
27985;SDS011;15453;53.692;10.168;2022-12-18T05:42:05;17.48;;;9.70;;
27985;SDS011;15453;53.692;10.168;2022-12-18T05:44:30;17.55;;;9.40;;
27985;SDS011;15453;53.692;10.168;2022-12-18T05:46:56;19.10;;;9.82;;
27985;SDS011;15453;53.692;10.168;2022-12-18T05:49:21;19.27;;;9.80;;
27985;SDS011;15453;53.692;10.168;2022-12-18T05:51:46;19.30;;;9.90;;
27985;SDS011;15453;53.692;10.168;2022-12-18T05:54:11;16.48;;;9.70;;
27985;SDS011;15453;53.692;10.168;2022-12-18T05:56:36;19.67;;;10.27;;
27985;SDS011;15453;53.692;10.168;2022-12-18T05:59:02;16.98;;;9.95;;
27985;SDS011;15453;53.692;10.168;2022-12-18T06:01:27;15.33;;;9.30;;
27985;SDS011;15453;53.692;10.168;2022-12-18T06:03:52;16.30;;;9.40;;
27985;SDS011;15453;53.692;10.168;2022-12-18T06:06:25;17.90;;;9.85;;
27985;SDS011;15453;53.692;10.168;2022-12-18T06:08:52;23.33;;;11.15;;
27985;SDS011;15453;53.692;10.168;2022-12-18T06:11:19;18.95;;;10.02;;
27985;SDS011;15453;53.692;10.168;2022-12-18T06:13:49;17.92;;;9.95;;
27985;SDS011;15453;53.692;10.168;2022-12-18T06:16:15;21.38;;;10.30;;
27985;SDS011;15453;53.692;10.168;2022-12-18T06:18:40;22.23;;;11.60;;
27985;SDS011;15453;53.692;10.168;2022-12-18T06:21:05;19.38;;;10.82;;
27985;SDS011;15453;53.692;10.168;2022-12-18T06:23:30;20.70;;;10.88;;
27985;SDS011;15453;53.692;10.168;2022-12-18T06:25:56;18.50;;;9.95;;
27985;SDS011;15453;53.692;10.168;2022-12-18T06:28:21;18.85;;;10.73;;
27985;SDS011;15453;53.692;10.168;2022-12-18T06:30:47;18.88;;;10.50;;
27985;SDS011;15453;53.692;10.168;2022-12-18T06:33:13;22.75;;;11.85;;
27985;SDS011;15453;53.692;10.168;2022-12-18T06:35:39;23.15;;;11.27;;
27985;SDS011;15453;53.692;10.168;2022-12-18T06:38:04;21.42;;;11.30;;
27985;SDS011;15453;53.692;10.168;2022-12-18T06:40:30;21.88;;;10.98;;
27985;SDS011;15453;53.692;10.168;2022-12-18T06:42:55;18.80;;;9.73;;
27985;SDS011;15453;53.692;10.168;2022-12-18T06:45:20;21.88;;;11.15;;
27985;SDS011;15453;53.692;10.168;2022-12-18T06:47:46;18.23;;;10.45;;
27985;SDS011;15453;53.692;10.168;2022-12-18T06:50:11;20.02;;;10.60;;
27985;SDS011;15453;53.692;10.168;2022-12-18T06:52:37;19.02;;;10.20;;
27985;SDS011;15453;53.692;10.168;2022-12-18T06:55:04;19.35;;;10.88;;
27985;SDS011;15453;53.692;10.168;2022-12-18T06:57:30;21.63;;;12.35;;
27985;SDS011;15453;53.692;10.168;2022-12-18T06:59:55;23.45;;;12.30;;
27985;SDS011;15453;53.692;10.168;2022-12-18T07:02:20;20.33;;;10.50;;
27985;SDS011;15453;53.692;10.168;2022-12-18T07:04:46;22.63;;;11.88;;
27985;SDS011;15453;53.692;10.168;2022-12-18T07:07:11;21.07;;;11.53;;
27985;SDS011;15453;53.692;10.168;2022-12-18T07:09:36;20.48;;;11.25;;
27985;SDS011;15453;53.692;10.168;2022-12-18T07:12:01;23.17;;;12.20;;
27985;SDS011;15453;53.692;10.168;2022-12-18T07:14:27;23.88;;;12.20;;
27985;SDS011;15453;53.692;10.168;2022-12-18T07:16:52;20.63;;;11.88;;
27985;SDS011;15453;53.692;10.168;2022-12-18T07:19:17;23.05;;;11.35;;
27985;SDS011;15453;53.692;10.168;2022-12-18T07:21:42;22.30;;;12.70;;
27985;SDS011;15453;53.692;10.168;2022-12-18T07:24:08;19.80;;;11.40;;
27985;SDS011;15453;53.692;10.168;2022-12-18T07:26:33;23.67;;;12.90;;
27985;SDS011;15453;53.692;10.168;2022-12-18T07:28:58;25.60;;;13.45;;
27985;SDS011;15453;53.692;10.168;2022-12-18T07:31:24;20.40;;;11.70;;
27985;SDS011;15453;53.692;10.168;2022-12-18T07:33:50;29.10;;;13.15;;
27985;SDS011;15453;53.692;10.168;2022-12-18T07:36:16;21.73;;;11.40;;
27985;SDS011;15453;53.692;10.168;2022-12-18T07:38:42;22.93;;;12.30;;
27985;SDS011;15453;53.692;10.168;2022-12-18T07:41:11;20.60;;;11.50;;
27985;SDS011;15453;53.692;10.168;2022-12-18T07:46:03;22.87;;;11.07;;
27985;SDS011;15453;53.692;10.168;2022-12-18T07:48:29;24.42;;;12.68;;
27985;SDS011;15453;53.692;10.168;2022-12-18T07:50:58;22.77;;;12.43;;
27985;SDS011;15453;53.692;10.168;2022-12-18T07:53:24;20.50;;;11.48;;
27985;SDS011;15453;53.692;10.168;2022-12-18T07:55:49;24.90;;;12.27;;
27985;SDS011;15453;53.692;10.168;2022-12-18T07:58:20;22.77;;;11.75;;
27985;SDS011;15453;53.692;10.168;2022-12-18T08:00:45;23.92;;;11.90;;
27985;SDS011;15453;53.692;10.168;2022-12-18T08:03:13;22.10;;;11.05;;
27985;SDS011;15453;53.692;10.168;2022-12-18T08:05:39;23.75;;;12.25;;
27985;SDS011;15453;53.692;10.168;2022-12-18T08:08:04;26.60;;;12.40;;
27985;SDS011;15453;53.692;10.168;2022-12-18T08:10:29;23.40;;;12.43;;
27985;SDS011;15453;53.692;10.168;2022-12-18T08:12:55;27.20;;;12.80;;
27985;SDS011;15453;53.692;10.168;2022-12-18T08:15:20;23.98;;;12.30;;
27985;SDS011;15453;53.692;10.168;2022-12-18T08:17:45;20.50;;;11.75;;
27985;SDS011;15453;53.692;10.168;2022-12-18T08:20:11;23.85;;;12.30;;
27985;SDS011;15453;53.692;10.168;2022-12-18T08:22:39;21.13;;;11.95;;
27985;SDS011;15453;53.692;10.168;2022-12-18T08:25:04;20.50;;;11.82;;
27985;SDS011;15453;53.692;10.168;2022-12-18T08:27:30;21.88;;;11.90;;
27985;SDS011;15453;53.692;10.168;2022-12-18T08:29:56;23.38;;;11.70;;
27985;SDS011;15453;53.692;10.168;2022-12-18T08:32:22;25.40;;;12.52;;
27985;SDS011;15453;53.692;10.168;2022-12-18T08:34:48;26.13;;;12.23;;
27985;SDS011;15453;53.692;10.168;2022-12-18T08:37:13;22.55;;;11.57;;
27985;SDS011;15453;53.692;10.168;2022-12-18T08:39:38;21.77;;;11.75;;
27985;SDS011;15453;53.692;10.168;2022-12-18T08:42:04;24.52;;;12.20;;
27985;SDS011;15453;53.692;10.168;2022-12-18T08:44:47;21.85;;;12.52;;
27985;SDS011;15453;53.692;10.168;2022-12-18T08:47:13;19.67;;;11.23;;
27985;SDS011;15453;53.692;10.168;2022-12-18T08:49:38;20.52;;;12.32;;
27985;SDS011;15453;53.692;10.168;2022-12-18T08:52:03;22.83;;;12.88;;
27985;SDS011;15453;53.692;10.168;2022-12-18T08:54:28;24.17;;;12.98;;
27985;SDS011;15453;53.692;10.168;2022-12-18T08:56:54;29.45;;;14.85;;
27985;SDS011;15453;53.692;10.168;2022-12-18T08:59:19;25.77;;;12.82;;
27985;SDS011;15453;53.692;10.168;2022-12-18T09:01:45;28.02;;;13.43;;
27985;SDS011;15453;53.692;10.168;2022-12-18T09:04:11;25.48;;;13.40;;
27985;SDS011;15453;53.692;10.168;2022-12-18T09:06:37;25.63;;;12.98;;
27985;SDS011;15453;53.692;10.168;2022-12-18T09:09:03;26.42;;;12.30;;
27985;SDS011;15453;53.692;10.168;2022-12-18T09:11:29;19.23;;;11.07;;
27985;SDS011;15453;53.692;10.168;2022-12-18T09:13:55;24.05;;;12.30;;
27985;SDS011;15453;53.692;10.168;2022-12-18T09:16:22;24.13;;;12.30;;
27985;SDS011;15453;53.692;10.168;2022-12-18T09:18:48;20.95;;;11.70;;
27985;SDS011;15453;53.692;10.168;2022-12-18T09:21:17;23.05;;;11.98;;
27985;SDS011;15453;53.692;10.168;2022-12-18T09:23:44;22.83;;;12.43;;
27985;SDS011;15453;53.692;10.168;2022-12-18T09:26:14;23.85;;;11.95;;
27985;SDS011;15453;53.692;10.168;2022-12-18T09:28:39;25.63;;;13.15;;
27985;SDS011;15453;53.692;10.168;2022-12-18T09:31:05;22.20;;;12.40;;
27985;SDS011;15453;53.692;10.168;2022-12-18T09:33:32;25.23;;;12.48;;
27985;SDS011;15453;53.692;10.168;2022-12-18T09:35:57;21.73;;;12.15;;
27985;SDS011;15453;53.692;10.168;2022-12-18T09:38:25;26.10;;;12.25;;
27985;SDS011;15453;53.692;10.168;2022-12-18T09:40:54;22.60;;;11.77;;
27985;SDS011;15453;53.692;10.168;2022-12-18T09:43:30;23.15;;;11.50;;
27985;SDS011;15453;53.692;10.168;2022-12-18T09:46:03;22.10;;;12.27;;
27985;SDS011;15453;53.692;10.168;2022-12-18T09:48:36;24.63;;;12.18;;
27985;SDS011;15453;53.692;10.168;2022-12-18T09:51:27;23.90;;;12.18;;
27985;SDS011;15453;53.692;10.168;2022-12-18T09:53:55;25.13;;;11.80;;
27985;SDS011;15453;53.692;10.168;2022-12-18T09:56:24;37.60;;;17.35;;
27985;SDS011;15453;53.692;10.168;2022-12-18T09:58:55;23.35;;;13.05;;
27985;SDS011;15453;53.692;10.168;2022-12-18T10:01:24;23.13;;;11.95;;
27985;SDS011;15453;53.692;10.168;2022-12-18T10:03:50;22.88;;;12.52;;
27985;SDS011;15453;53.692;10.168;2022-12-18T10:06:21;25.55;;;12.32;;
27985;SDS011;15453;53.692;10.168;2022-12-18T10:09:01;22.88;;;12.13;;
27985;SDS011;15453;53.692;10.168;2022-12-18T10:19:47;20.55;;;11.25;;
27985;SDS011;15453;53.692;10.168;2022-12-18T10:25:15;20.25;;;11.27;;
27985;SDS011;15453;53.692;10.168;2022-12-18T10:27:45;18.60;;;10.55;;
27985;SDS011;15453;53.692;10.168;2022-12-18T10:30:13;23.55;;;10.65;;
27985;SDS011;15453;53.692;10.168;2022-12-18T10:32:41;19.02;;;10.25;;
27985;SDS011;15453;53.692;10.168;2022-12-18T10:35:23;21.05;;;10.48;;
27985;SDS011;15453;53.692;10.168;2022-12-18T10:41:22;19.98;;;9.88;;
27985;SDS011;15453;53.692;10.168;2022-12-18T10:46:01;18.02;;;9.85;;
27985;SDS011;15453;53.692;10.168;2022-12-18T10:51:21;19.27;;;9.32;;
27985;SDS011;15453;53.692;10.168;2022-12-18T10:54:02;21.50;;;10.80;;
27985;SDS011;15453;53.692;10.168;2022-12-18T10:56:30;18.17;;;10.35;;
27985;SDS011;15453;53.692;10.168;2022-12-18T10:58:59;18.83;;;9.68;;
27985;SDS011;15453;53.692;10.168;2022-12-18T11:07:01;21.17;;;10.40;;
27985;SDS011;15453;53.692;10.168;2022-12-18T11:09:28;18.60;;;10.38;;
27985;SDS011;15453;53.692;10.168;2022-12-18T11:11:57;22.85;;;11.07;;
27985;SDS011;15453;53.692;10.168;2022-12-18T11:14:25;20.13;;;10.52;;
27985;SDS011;15453;53.692;10.168;2022-12-18T11:16:56;20.85;;;10.52;;
27985;SDS011;15453;53.692;10.168;2022-12-18T11:19:36;20.35;;;10.77;;
27985;SDS011;15453;53.692;10.168;2022-12-18T11:22:03;23.60;;;11.65;;
27985;SDS011;15453;53.692;10.168;2022-12-18T11:24:49;21.80;;;10.43;;
27985;SDS011;15453;53.692;10.168;2022-12-18T11:27:18;20.58;;;10.38;;
27985;SDS011;15453;53.692;10.168;2022-12-18T11:29:44;18.25;;;10.63;;
27985;SDS011;15453;53.692;10.168;2022-12-18T11:32:21;17.35;;;10.57;;
27985;SDS011;15453;53.692;10.168;2022-12-18T11:37:38;18.85;;;10.52;;
27985;SDS011;15453;53.692;10.168;2022-12-18T11:40:10;21.63;;;10.30;;
27985;SDS011;15453;53.692;10.168;2022-12-18T11:42:51;19.58;;;11.02;;
27985;SDS011;15453;53.692;10.168;2022-12-18T11:45:29;20.33;;;11.18;;
27985;SDS011;15453;53.692;10.168;2022-12-18T11:48:01;21.75;;;12.10;;
27985;SDS011;15453;53.692;10.168;2022-12-18T11:50:44;32.53;;;14.63;;
27985;SDS011;15453;53.692;10.168;2022-12-18T11:53:14;25.70;;;12.90;;
27985;SDS011;15453;53.692;10.168;2022-12-18T11:55:42;22.50;;;11.15;;
27985;SDS011;15453;53.692;10.168;2022-12-18T11:58:39;20.35;;;10.27;;
27985;SDS011;15453;53.692;10.168;2022-12-18T12:04:19;17.08;;;9.15;;
27985;SDS011;15453;53.692;10.168;2022-12-18T12:12:37;17.67;;;9.45;;
27985;SDS011;15453;53.692;10.168;2022-12-18T12:18:36;20.75;;;10.70;;
27985;SDS011;15453;53.692;10.168;2022-12-18T12:26:43;21.00;;;11.93;;
27985;SDS011;15453;53.692;10.168;2022-12-18T12:29:29;20.73;;;10.75;;
27985;SDS011;15453;53.692;10.168;2022-12-18T12:32:28;22.02;;;11.13;;
27985;SDS011;15453;53.692;10.168;2022-12-18T12:35:23;20.88;;;10.02;;
27985;SDS011;15453;53.692;10.168;2022-12-18T12:38:05;19.90;;;10.48;;
27985;SDS011;15453;53.692;10.168;2022-12-18T12:40:37;23.27;;;10.68;;
27985;SDS011;15453;53.692;10.168;2022-12-18T12:43:28;21.08;;;10.40;;
27985;SDS011;15453;53.692;10.168;2022-12-18T12:45:57;22.92;;;11.68;;
27985;SDS011;15453;53.692;10.168;2022-12-18T12:48:45;23.27;;;11.45;;
27985;SDS011;15453;53.692;10.168;2022-12-18T12:51:20;21.38;;;10.60;;
27985;SDS011;15453;53.692;10.168;2022-12-18T12:53:47;20.55;;;10.50;;
27985;SDS011;15453;53.692;10.168;2022-12-18T12:56:14;20.52;;;10.18;;
27985;SDS011;15453;53.692;10.168;2022-12-18T13:01:25;24.13;;;11.45;;
27985;SDS011;15453;53.692;10.168;2022-12-18T13:06:41;21.00;;;9.38;;
27985;SDS011;15453;53.692;10.168;2022-12-18T13:09:11;21.33;;;10.45;;
27985;SDS011;15453;53.692;10.168;2022-12-18T13:11:38;21.33;;;10.98;;
27985;SDS011;15453;53.692;10.168;2022-12-18T13:14:28;23.48;;;12.05;;
27985;SDS011;15453;53.692;10.168;2022-12-18T13:20:07;26.08;;;12.77;;
27985;SDS011;15453;53.692;10.168;2022-12-18T13:22:35;29.08;;;13.50;;
27985;SDS011;15453;53.692;10.168;2022-12-18T13:25:26;26.98;;;12.73;;
27985;SDS011;15453;53.692;10.168;2022-12-18T13:28:08;29.02;;;13.68;;
27985;SDS011;15453;53.692;10.168;2022-12-18T13:38:23;26.50;;;14.50;;
27985;SDS011;15453;53.692;10.168;2022-12-18T13:43:26;31.60;;;15.18;;
27985;SDS011;15453;53.692;10.168;2022-12-18T13:48:52;31.05;;;15.15;;
27985;SDS011;15453;53.692;10.168;2022-12-18T13:51:21;29.13;;;13.18;;
27985;SDS011;15453;53.692;10.168;2022-12-18T13:53:48;31.48;;;16.20;;
27985;SDS011;15453;53.692;10.168;2022-12-18T13:56:23;33.35;;;15.05;;
27985;SDS011;15453;53.692;10.168;2022-12-18T14:01:59;29.53;;;14.67;;
27985;SDS011;15453;53.692;10.168;2022-12-18T14:04:27;28.40;;;14.27;;
27985;SDS011;15453;53.692;10.168;2022-12-18T14:07:04;33.17;;;16.35;;
27985;SDS011;15453;53.692;10.168;2022-12-18T14:09:35;30.83;;;14.73;;
27985;SDS011;15453;53.692;10.168;2022-12-18T14:12:04;32.78;;;16.10;;
27985;SDS011;15453;53.692;10.168;2022-12-18T14:14:49;33.15;;;15.07;;
27985;SDS011;15453;53.692;10.168;2022-12-18T14:17:16;36.28;;;17.70;;
27985;SDS011;15453;53.692;10.168;2022-12-18T14:19:43;31.48;;;15.02;;
27985;SDS011;15453;53.692;10.168;2022-12-18T14:22:17;33.25;;;15.27;;
27985;SDS011;15453;53.692;10.168;2022-12-18T14:24:45;38.40;;;17.38;;
27985;SDS011;15453;53.692;10.168;2022-12-18T14:27:37;34.75;;;16.08;;
27985;SDS011;15453;53.692;10.168;2022-12-18T14:29:56;39.17;;;17.80;;
27985;SDS011;15453;53.692;10.168;2022-12-18T14:32:24;34.70;;;15.80;;
27985;SDS011;15453;53.692;10.168;2022-12-18T14:34:52;33.08;;;15.35;;
27985;SDS011;15453;53.692;10.168;2022-12-18T14:37:25;34.42;;;16.15;;
27985;SDS011;15453;53.692;10.168;2022-12-18T14:39:55;32.05;;;15.35;;
27985;SDS011;15453;53.692;10.168;2022-12-18T14:42:22;38.22;;;15.95;;
27985;SDS011;15453;53.692;10.168;2022-12-18T14:44:48;35.35;;;16.52;;
27985;SDS011;15453;53.692;10.168;2022-12-18T14:47:14;36.75;;;16.40;;
27985;SDS011;15453;53.692;10.168;2022-12-18T14:49:40;36.15;;;16.02;;
27985;SDS011;15453;53.692;10.168;2022-12-18T14:52:24;37.35;;;17.13;;
27985;SDS011;15453;53.692;10.168;2022-12-18T14:54:53;37.40;;;17.38;;
27985;SDS011;15453;53.692;10.168;2022-12-18T14:57:25;35.92;;;16.20;;
27985;SDS011;15453;53.692;10.168;2022-12-18T15:00:04;32.47;;;15.87;;
27985;SDS011;15453;53.692;10.168;2022-12-18T15:02:39;37.20;;;16.65;;
27985;SDS011;15453;53.692;10.168;2022-12-18T15:07:41;41.72;;;17.48;;
27985;SDS011;15453;53.692;10.168;2022-12-18T15:12:40;39.75;;;17.45;;
27985;SDS011;15453;53.692;10.168;2022-12-18T15:20:33;38.78;;;17.52;;
27985;SDS011;15453;53.692;10.168;2022-12-18T15:23:12;42.70;;;18.42;;
27985;SDS011;15453;53.692;10.168;2022-12-18T15:25:40;48.65;;;19.52;;
27985;SDS011;15453;53.692;10.168;2022-12-18T15:28:19;41.75;;;18.77;;
27985;SDS011;15453;53.692;10.168;2022-12-18T15:30:58;41.97;;;18.45;;
27985;SDS011;15453;53.692;10.168;2022-12-18T15:33:26;41.95;;;17.75;;
27985;SDS011;15453;53.692;10.168;2022-12-18T15:35:58;45.50;;;19.05;;
27985;SDS011;15453;53.692;10.168;2022-12-18T15:38:28;44.63;;;18.75;;
27985;SDS011;15453;53.692;10.168;2022-12-18T15:40:54;42.75;;;18.10;;
27985;SDS011;15453;53.692;10.168;2022-12-18T15:43:20;45.88;;;20.10;;
27985;SDS011;15453;53.692;10.168;2022-12-18T15:46:03;44.67;;;18.88;;
27985;SDS011;15453;53.692;10.168;2022-12-18T15:48:30;44.40;;;18.83;;
27985;SDS011;15453;53.692;10.168;2022-12-18T15:50:59;41.17;;;18.38;;
27985;SDS011;15453;53.692;10.168;2022-12-18T15:53:25;51.80;;;21.63;;
27985;SDS011;15453;53.692;10.168;2022-12-18T15:55:55;47.25;;;19.58;;
27985;SDS011;15453;53.692;10.168;2022-12-18T15:58:38;46.95;;;20.10;;
27985;SDS011;15453;53.692;10.168;2022-12-18T16:01:04;50.05;;;20.67;;
27985;SDS011;15453;53.692;10.168;2022-12-18T16:03:29;48.90;;;21.13;;
27985;SDS011;15453;53.692;10.168;2022-12-18T16:05:55;46.22;;;20.60;;
27985;SDS011;15453;53.692;10.168;2022-12-18T16:08:20;47.97;;;21.88;;